sensor_id;sensor_type;location;lat;lon;timestamp;pressure;altitude;pressure_sealevel;temperature;humidity
7524;BME280;3803;51.666;7.630;2023-06-22T00:00:20;101227.13;;;21.21;56.24
7524;BME280;3803;51.666;7.630;2023-06-22T00:00:42;101243.88;;;21.28;56.06
7524;BME280;3803;51.666;7.630;2023-06-22T00:01:03;101243.88;;;21.28;56.26
7524;BME280;3803;51.666;7.630;2023-06-22T00:01:24;101243.00;;;21.28;55.80
7524;BME280;3803;51.666;7.630;2023-06-22T00:01:44;101237.72;;;21.25;56.13
7524;BME280;3803;51.666;7.630;2023-06-22T00:02:05;101230.63;;;21.23;56.18
7524;BME280;3803;51.666;7.630;2023-06-22T00:02:26;101233.28;;;21.23;56.40
7524;BME280;3803;51.666;7.630;2023-06-22T00:02:47;101236.84;;;21.22;55.95
7524;BME280;3803;51.666;7.630;2023-06-22T00:03:07;101245.63;;;21.29;56.15
7524;BME280;3803;51.666;7.630;2023-06-22T00:03:28;101245.66;;;21.26;56.23
7524;BME280;3803;51.666;7.630;2023-06-22T00:03:49;101233.31;;;21.22;56.10
7524;BME280;3803;51.666;7.630;2023-06-22T00:04:10;101236.78;;;21.27;56.28
7524;BME280;3803;51.666;7.630;2023-06-22T00:04:30;101234.19;;;21.24;56.48
7524;BME280;3803;51.666;7.630;2023-06-22T00:04:51;101224.47;;;21.20;56.29
7524;BME280;3803;51.666;7.630;2023-06-22T00:05:12;101241.19;;;21.30;56.21
7524;BME280;3803;51.666;7.630;2023-06-22T00:05:33;101225.38;;;21.20;56.18
7524;BME280;3803;51.666;7.630;2023-06-22T00:05:54;101221.81;;;21.21;56.40
7524;BME280;3803;51.666;7.630;2023-06-22T00:06:14;101227.97;;;21.25;56.27
7524;BME280;3803;51.666;7.630;2023-06-22T00:06:35;101226.22;;;21.24;56.30
7524;BME280;3803;51.666;7.630;2023-06-22T00:06:56;101225.31;;;21.23;56.30
7524;BME280;3803;51.666;7.630;2023-06-22T00:07:17;101218.28;;;21.21;56.23
7524;BME280;3803;51.666;7.630;2023-06-22T00:07:37;101211.25;;;21.17;56.48
7524;BME280;3803;51.666;7.630;2023-06-22T00:08:02;101230.63;;;21.23;56.33
7524;BME280;3803;51.666;7.630;2023-06-22T00:08:23;101227.97;;;21.23;56.65
7524;BME280;3803;51.666;7.630;2023-06-22T00:08:44;101212.19;;;21.13;56.47
7524;BME280;3803;51.666;7.630;2023-06-22T00:09:05;101210.38;;;21.12;56.54
7524;BME280;3803;51.666;7.630;2023-06-22T00:09:27;101207.78;;;21.08;56.73
7524;BME280;3803;51.666;7.630;2023-06-22T00:09:48;101212.19;;;21.13;56.73
7524;BME280;3803;51.666;7.630;2023-06-22T00:10:08;101219.25;;;21.14;56.74
7524;BME280;3803;51.666;7.630;2023-06-22T00:10:29;101208.69;;;21.07;56.77
7524;BME280;3803;51.666;7.630;2023-06-22T00:10:50;101213.94;;;21.10;56.68
7524;BME280;3803;51.666;7.630;2023-06-22T00:11:11;101210.38;;;21.12;56.77
7524;BME280;3803;51.666;7.630;2023-06-22T00:11:32;101215.69;;;21.15;56.72
7524;BME280;3803;51.666;7.630;2023-06-22T00:11:53;101202.47;;;21.07;56.74
7524;BME280;3803;51.666;7.630;2023-06-22T00:12:17;101224.50;;;21.17;56.86
7524;BME280;3803;51.666;7.630;2023-06-22T00:12:56;101224.53;;;21.14;57.04
7524;BME280;3803;51.666;7.630;2023-06-22T00:13:35;101219.28;;;21.07;56.97
7524;BME280;3803;51.666;7.630;2023-06-22T00:13:56;101209.56;;;21.05;57.02
7524;BME280;3803;51.666;7.630;2023-06-22T00:14:17;101207.78;;;21.07;56.95
7524;BME280;3803;51.666;7.630;2023-06-22T00:14:37;101216.63;;;21.06;57.05
7524;BME280;3803;51.666;7.630;2023-06-22T00:14:58;101215.78;;;21.05;56.98
7524;BME280;3803;51.666;7.630;2023-06-22T00:15:20;101219.28;;;21.07;57.02
7524;BME280;3803;51.666;7.630;2023-06-22T00:15:41;101218.44;;;21.05;57.04
7524;BME280;3803;51.666;7.630;2023-06-22T00:16:02;101210.47;;;21.02;57.01
7524;BME280;3803;51.666;7.630;2023-06-22T00:16:22;101215.75;;;21.07;57.21
7524;BME280;3803;51.666;7.630;2023-06-22T00:16:43;101222.84;;;21.06;57.23
7524;BME280;3803;51.666;7.630;2023-06-22T00:17:04;101213.13;;;21.02;57.14
7524;BME280;3803;51.666;7.630;2023-06-22T00:17:25;101210.47;;;21.02;57.11
7524;BME280;3803;51.666;7.630;2023-06-22T00:17:46;101210.53;;;20.98;57.21
7524;BME280;3803;51.666;7.630;2023-06-22T00:18:07;101202.59;;;20.94;57.35
7524;BME280;3803;51.666;7.630;2023-06-22T00:18:28;101210.47;;;21.02;57.43
7524;BME280;3803;51.666;7.630;2023-06-22T00:18:52;101210.53;;;20.99;57.54
7524;BME280;3803;51.666;7.630;2023-06-22T00:19:13;101199.06;;;20.95;57.51
7524;BME280;3803;51.666;7.630;2023-06-22T00:19:34;101195.50;;;20.96;57.57
7524;BME280;3803;51.666;7.630;2023-06-22T00:19:55;101191.13;;;20.92;57.68
7524;BME280;3803;51.666;7.630;2023-06-22T00:20:19;101192.00;;;20.93;57.79
7524;BME280;3803;51.666;7.630;2023-06-22T00:20:41;101199.94;;;20.93;57.78
7524;BME280;3803;51.666;7.630;2023-06-22T00:21:02;101191.13;;;20.91;57.80
7524;BME280;3803;51.666;7.630;2023-06-22T00:21:23;101189.38;;;20.87;57.84
7524;BME280;3803;51.666;7.630;2023-06-22T00:21:44;101192.91;;;20.92;57.78
7524;BME280;3803;51.666;7.630;2023-06-22T00:22:07;101207.88;;;20.96;57.75
7524;BME280;3803;51.666;7.630;2023-06-22T00:22:28;101192.94;;;20.89;57.67
7524;BME280;3803;51.666;7.630;2023-06-22T00:22:49;101192.94;;;20.86;57.70
7524;BME280;3803;51.666;7.630;2023-06-22T00:23:09;101191.19;;;20.86;57.87
7524;BME280;3803;51.666;7.630;2023-06-22T00:23:30;101192.94;;;20.86;57.78
7524;BME280;3803;51.666;7.630;2023-06-22T00:23:54;101214.97;;;20.94;58.01
7524;BME280;3803;51.666;7.630;2023-06-22T00:24:16;101204.41;;;20.91;57.84
7524;BME280;3803;51.666;7.630;2023-06-22T00:24:36;101215.00;;;20.91;57.82
7524;BME280;3803;51.666;7.630;2023-06-22T00:24:57;101207.97;;;20.87;58.02
7524;BME280;3803;51.666;7.630;2023-06-22T00:25:17;101217.66;;;20.89;58.05
7524;BME280;3803;51.666;7.630;2023-06-22T00:25:38;101213.28;;;20.85;57.94
7524;BME280;3803;51.666;7.630;2023-06-22T00:26:02;101213.31;;;20.82;58.18
7524;BME280;3803;51.666;7.630;2023-06-22T00:26:23;101219.47;;;20.86;58.22
7524;BME280;3803;51.666;7.630;2023-06-22T00:26:44;101222.97;;;20.89;58.18
7524;BME280;3803;51.666;7.630;2023-06-22T00:27:05;101221.22;;;20.87;58.24
7524;BME280;3803;51.666;7.630;2023-06-22T00:27:26;101223.00;;;20.85;58.34
7524;BME280;3803;51.666;7.630;2023-06-22T00:27:47;101230.97;;;20.86;58.09
7524;BME280;3803;51.666;7.630;2023-06-22T00:28:08;101215.97;;;20.80;58.03
7524;BME280;3803;51.666;7.630;2023-06-22T00:28:29;101226.53;;;20.87;58.30
7524;BME280;3803;51.666;7.630;2023-06-22T00:28:50;101218.59;;;20.82;58.20
7524;BME280;3803;51.666;7.630;2023-06-22T00:29:11;101222.97;;;20.88;58.20
7524;BME280;3803;51.666;7.630;2023-06-22T00:29:32;101223.00;;;20.83;58.31
7524;BME280;3803;51.666;7.630;2023-06-22T00:29:52;101213.34;;;20.77;58.29
7524;BME280;3803;51.666;7.630;2023-06-22T00:30:18;101207.19;;;20.72;58.37
7524;BME280;3803;51.666;7.630;2023-06-22T00:30:39;101221.28;;;20.77;58.45
7524;BME280;3803;51.666;7.630;2023-06-22T00:30:59;101221.28;;;20.76;58.63
7524;BME280;3803;51.666;7.630;2023-06-22T00:31:20;101207.19;;;20.69;58.56
7524;BME280;3803;51.666;7.630;2023-06-22T00:31:41;101214.28;;;20.73;58.72
7524;BME280;3803;51.666;7.630;2023-06-22T00:32:02;101203.66;;;20.70;58.75
7524;BME280;3803;51.666;7.630;2023-06-22T00:32:23;101217.78;;;20.75;58.81
7524;BME280;3803;51.666;7.630;2023-06-22T00:32:45;101221.34;;;20.74;58.75
7524;BME280;3803;51.666;7.630;2023-06-22T00:33:09;101202.78;;;20.71;58.73
7524;BME280;3803;51.666;7.630;2023-06-22T00:33:29;101206.31;;;20.72;58.63
7524;BME280;3803;51.666;7.630;2023-06-22T00:33:50;101212.47;;;20.75;58.91
7524;BME280;3803;51.666;7.630;2023-06-22T00:34:11;101205.41;;;20.74;58.92
7524;BME280;3803;51.666;7.630;2023-06-22T00:34:32;101207.19;;;20.72;58.86
7524;BME280;3803;51.666;7.630;2023-06-22T00:34:54;101209.81;;;20.75;58.94
7524;BME280;3803;51.666;7.630;2023-06-22T00:35:14;101208.06;;;20.71;59.00
7524;BME280;3803;51.666;7.630;2023-06-22T00:35:35;101221.28;;;20.77;58.92
7524;BME280;3803;51.666;7.630;2023-06-22T00:35:57;101210.72;;;20.73;59.10
7524;BME280;3803;51.666;7.630;2023-06-22T00:36:19;101208.06;;;20.71;59.03
7524;BME280;3803;51.666;7.630;2023-06-22T00:36:40;101202.78;;;20.68;59.12
7524;BME280;3803;51.666;7.630;2023-06-22T00:37:01;101209.84;;;20.69;58.91
7524;BME280;3803;51.666;7.630;2023-06-22T00:37:21;101213.38;;;20.71;59.16
7524;BME280;3803;51.666;7.630;2023-06-22T00:37:47;101205.41;;;20.68;59.25
7524;BME280;3803;51.666;7.630;2023-06-22T00:38:08;101215.13;;;20.72;59.19
7524;BME280;3803;51.666;7.630;2023-06-22T00:38:29;101213.38;;;20.68;59.08
7524;BME280;3803;51.666;7.630;2023-06-22T00:38:49;101201.91;;;20.66;59.24
7524;BME280;3803;51.666;7.630;2023-06-22T00:39:11;101208.97;;;20.64;59.17
7524;BME280;3803;51.666;7.630;2023-06-22T00:39:32;101216.03;;;20.68;59.28
7524;BME280;3803;51.666;7.630;2023-06-22T00:39:54;101211.63;;;20.65;59.27
7524;BME280;3803;51.666;7.630;2023-06-22T00:40:14;101210.72;;;20.66;59.35
7524;BME280;3803;51.666;7.630;2023-06-22T00:40:38;101216.03;;;20.71;59.35
7524;BME280;3803;51.666;7.630;2023-06-22T00:40:59;101216.03;;;20.71;59.33
7524;BME280;3803;51.666;7.630;2023-06-22T00:41:20;101213.38;;;20.69;59.27
7524;BME280;3803;51.666;7.630;2023-06-22T00:41:41;101207.19;;;20.69;59.48
7524;BME280;3803;51.666;7.630;2023-06-22T00:42:02;101216.03;;;20.68;59.29
7524;BME280;3803;51.666;7.630;2023-06-22T00:42:24;101202.78;;;20.66;59.26
7524;BME280;3803;51.666;7.630;2023-06-22T00:42:45;101216.03;;;20.71;59.26
7524;BME280;3803;51.666;7.630;2023-06-22T00:43:06;101216.03;;;20.69;59.38
7524;BME280;3803;51.666;7.630;2023-06-22T00:43:26;101217.78;;;20.67;59.38
7524;BME280;3803;51.666;7.630;2023-06-22T00:43:47;101212.47;;;20.69;59.38
7524;BME280;3803;51.666;7.630;2023-06-22T00:44:08;101216.94;;;20.70;59.37
7524;BME280;3803;51.666;7.630;2023-06-22T00:44:29;101208.97;;;20.67;59.33
7524;BME280;3803;51.666;7.630;2023-06-22T00:44:49;101222.22;;;20.72;59.44
7524;BME280;3803;51.666;7.630;2023-06-22T00:45:11;101223.09;;;20.75;59.42
7524;BME280;3803;51.666;7.630;2023-06-22T00:45:31;101216.03;;;20.71;59.28
7524;BME280;3803;51.666;7.630;2023-06-22T00:45:52;101211.63;;;20.70;59.36
7524;BME280;3803;51.666;7.630;2023-06-22T00:46:17;101223.09;;;20.75;59.49
7524;BME280;3803;51.666;7.630;2023-06-22T00:46:37;101220.47;;;20.71;59.50
7524;BME280;3803;51.666;7.630;2023-06-22T00:46:59;101227.53;;;20.72;59.46
7524;BME280;3803;51.666;7.630;2023-06-22T00:47:21;101211.63;;;20.67;59.49
7524;BME280;3803;51.666;7.630;2023-06-22T00:47:42;101222.22;;;20.68;59.64
7524;BME280;3803;51.666;7.630;2023-06-22T00:48:05;101220.44;;;20.67;59.75
7524;BME280;3803;51.666;7.630;2023-06-22T00:48:26;101220.44;;;20.67;59.68
7524;BME280;3803;51.666;7.630;2023-06-22T00:48:47;101216.06;;;20.65;59.85
7524;BME280;3803;51.666;7.630;2023-06-22T00:49:08;101219.59;;;20.64;59.85
7524;BME280;3803;51.666;7.630;2023-06-22T00:49:30;101209.91;;;20.60;59.68
7524;BME280;3803;51.666;7.630;2023-06-22T00:49:51;101230.19;;;20.68;59.86
7524;BME280;3803;51.666;7.630;2023-06-22T00:50:17;101222.22;;;20.64;59.71
7524;BME280;3803;51.666;7.630;2023-06-22T00:50:39;101224.88;;;20.67;59.73
7524;BME280;3803;51.666;7.630;2023-06-22T00:51:01;101214.31;;;20.62;59.82
7524;BME280;3803;51.666;7.630;2023-06-22T00:51:21;101222.22;;;20.65;59.99
7524;BME280;3803;51.666;7.630;2023-06-22T00:51:50;101220.50;;;20.61;60.09
7524;BME280;3803;51.666;7.630;2023-06-22T00:52:11;101229.28;;;20.66;60.18
7524;BME280;3803;51.666;7.630;2023-06-22T00:52:34;101217.84;;;20.60;60.07
7524;BME280;3803;51.666;7.630;2023-06-22T00:52:57;101214.34;;;20.58;60.19
7524;BME280;3803;51.666;7.630;2023-06-22T00:53:19;101220.50;;;20.60;60.24
7524;BME280;3803;51.666;7.630;2023-06-22T00:53:40;101219.66;;;20.58;60.15
7524;BME280;3803;51.666;7.630;2023-06-22T00:54:01;101217.00;;;20.56;60.40
7524;BME280;3803;51.666;7.630;2023-06-22T00:54:22;101214.34;;;20.54;60.39
7524;BME280;3803;51.666;7.630;2023-06-22T00:54:45;101206.44;;;20.48;60.27
7524;BME280;3803;51.666;7.630;2023-06-22T00:55:06;101216.13;;;20.52;60.31
7524;BME280;3803;51.666;7.630;2023-06-22T00:55:28;101221.41;;;20.55;60.43
7524;BME280;3803;51.666;7.630;2023-06-22T00:55:49;101222.34;;;20.51;60.35
7524;BME280;3803;51.666;7.630;2023-06-22T00:56:12;101219.66;;;20.54;60.42
7524;BME280;3803;51.666;7.630;2023-06-22T00:56:33;101219.66;;;20.54;60.39
7524;BME280;3803;51.666;7.630;2023-06-22T00:56:58;101221.41;;;20.57;60.48
7524;BME280;3803;51.666;7.630;2023-06-22T00:57:20;101209.06;;;20.48;60.51
7524;BME280;3803;51.666;7.630;2023-06-22T00:57:40;101208.22;;;20.48;60.57
7524;BME280;3803;51.666;7.630;2023-06-22T00:58:01;101203.81;;;20.45;60.46
7524;BME280;3803;51.666;7.630;2023-06-22T00:58:22;101215.25;;;20.57;60.41
7524;BME280;3803;51.666;7.630;2023-06-22T00:58:43;101202.91;;;20.46;60.54
7524;BME280;3803;51.666;7.630;2023-06-22T00:59:03;101212.59;;;20.53;60.65
7524;BME280;3803;51.666;7.630;2023-06-22T00:59:25;101206.44;;;20.50;60.52
7524;BME280;3803;51.666;7.630;2023-06-22T00:59:48;101211.72;;;20.51;60.46
7524;BME280;3803;51.666;7.630;2023-06-22T01:00:10;101212.59;;;20.53;60.62
7524;BME280;3803;51.666;7.630;2023-06-22T01:00:32;101203.78;;;20.50;60.51
7524;BME280;3803;51.666;7.630;2023-06-22T01:00:54;101209.06;;;20.51;60.54
7524;BME280;3803;51.666;7.630;2023-06-22T01:01:15;101209.03;;;20.54;60.69
7524;BME280;3803;51.666;7.630;2023-06-22T01:01:36;101223.16;;;20.60;60.60
7524;BME280;3803;51.666;7.630;2023-06-22T01:02:01;101216.09;;;20.57;60.59
7524;BME280;3803;51.666;7.630;2023-06-22T01:02:22;101218.75;;;20.57;60.62
7524;BME280;3803;51.666;7.630;2023-06-22T01:02:43;101216.09;;;20.55;60.56
7524;BME280;3803;51.666;7.630;2023-06-22T01:03:07;101204.63;;;20.52;60.57
7524;BME280;3803;51.666;7.630;2023-06-22T01:03:31;101210.84;;;20.52;60.44
7524;BME280;3803;51.666;7.630;2023-06-22T01:03:52;101222.25;;;20.61;60.52
7524;BME280;3803;51.666;7.630;2023-06-22T01:04:13;101218.72;;;20.60;60.54
7524;BME280;3803;51.666;7.630;2023-06-22T01:04:36;101201.97;;;20.53;60.69
7524;BME280;3803;51.666;7.630;2023-06-22T01:04:57;101212.59;;;20.55;60.71
7524;BME280;3803;51.666;7.630;2023-06-22T01:05:21;101209.94;;;20.55;60.66
7524;BME280;3803;51.666;7.630;2023-06-22T01:05:42;101208.19;;;20.54;60.81
7524;BME280;3803;51.666;7.630;2023-06-22T01:06:14;101203.78;;;20.51;60.57
7524;BME280;3803;51.666;7.630;2023-06-22T01:06:50;101220.50;;;20.61;60.65
7524;BME280;3803;51.666;7.630;2023-06-22T01:07:31;101216.97;;;20.61;60.58
7524;BME280;3803;51.666;7.630;2023-06-22T01:08:21;101219.63;;;20.59;60.88
7524;BME280;3803;51.666;7.630;2023-06-22T01:08:51;101211.69;;;20.56;60.85
7524;BME280;3803;51.666;7.630;2023-06-22T01:09:23;101206.44;;;20.53;60.70
7524;BME280;3803;51.666;7.630;2023-06-22T01:10:19;101216.09;;;20.55;60.80
7524;BME280;3803;51.666;7.630;2023-06-22T01:10:54;101216.16;;;20.49;60.86
7524;BME280;3803;51.666;7.630;2023-06-22T01:11:21;101211.75;;;20.47;61.07
7524;BME280;3803;51.666;7.630;2023-06-22T01:11:54;101207.31;;;20.50;61.03
7524;BME280;3803;51.666;7.630;2023-06-22T01:12:19;101217.97;;;20.46;61.00
7524;BME280;3803;51.666;7.630;2023-06-22T01:12:45;101218.81;;;20.49;60.95
7524;BME280;3803;51.666;7.630;2023-06-22T01:14:06;101206.50;;;20.42;61.17
7524;BME280;3803;51.666;7.630;2023-06-22T01:14:52;101213.56;;;20.41;61.11
7524;BME280;3803;51.666;7.630;2023-06-22T01:15:21;101210.91;;;20.40;61.20
7524;BME280;3803;51.666;7.630;2023-06-22T01:15:45;101224.97;;;20.48;61.09
7524;BME280;3803;51.666;7.630;2023-06-22T01:16:23;101213.53;;;20.40;61.31
7524;BME280;3803;51.666;7.630;2023-06-22T01:16:46;101209.16;;;20.37;61.46
7524;BME280;3803;51.666;7.630;2023-06-22T01:17:10;101207.38;;;20.36;61.60
7524;BME280;3803;51.666;7.630;2023-06-22T01:17:34;101230.31;;;20.45;61.59
7524;BME280;3803;51.666;7.630;2023-06-22T01:17:57;101217.97;;;20.36;61.54
7524;BME280;3803;51.666;7.630;2023-06-22T01:18:20;101207.41;;;20.32;61.51
7524;BME280;3803;51.666;7.630;2023-06-22T01:18:47;101221.50;;;20.40;61.49
7524;BME280;3803;51.666;7.630;2023-06-22T01:19:24;101225.03;;;20.42;61.71
7524;BME280;3803;51.666;7.630;2023-06-22T01:19:49;101223.28;;;20.38;61.62
7524;BME280;3803;51.666;7.630;2023-06-22T01:20:16;101221.53;;;20.37;61.60
7524;BME280;3803;51.666;7.630;2023-06-22T01:20:38;101230.34;;;20.42;61.58
7524;BME280;3803;51.666;7.630;2023-06-22T01:21:01;101219.78;;;20.36;61.54
7524;BME280;3803;51.666;7.630;2023-06-22T01:21:24;101230.34;;;20.42;61.54
7524;BME280;3803;51.666;7.630;2023-06-22T01:21:46;101221.53;;;20.37;61.58
7524;BME280;3803;51.666;7.630;2023-06-22T01:22:08;101223.28;;;20.38;61.51
7524;BME280;3803;51.666;7.630;2023-06-22T01:22:44;101209.16;;;20.33;61.64
7524;BME280;3803;51.666;7.630;2023-06-22T01:25:20;101225.91;;;20.46;61.49
7524;BME280;3803;51.666;7.630;2023-06-22T01:27:00;101213.53;;;20.40;61.78
7524;BME280;3803;51.666;7.630;2023-06-22T01:28:13;101225.00;;;20.45;61.57
7524;BME280;3803;51.666;7.630;2023-06-22T01:29:08;101212.72;;;20.32;61.93
7524;BME280;3803;51.666;7.630;2023-06-22T01:29:31;101217.13;;;20.33;61.89
7524;BME280;3803;51.666;7.630;2023-06-22T01:29:56;101215.38;;;20.35;61.82
7524;BME280;3803;51.666;7.630;2023-06-22T01:30:30;101209.19;;;20.30;62.05
7524;BME280;3803;51.666;7.630;2023-06-22T01:30:54;101218.91;;;20.32;62.10
7524;BME280;3803;51.666;7.630;2023-06-22T01:31:25;101205.66;;;20.31;61.98
7524;BME280;3803;51.666;7.630;2023-06-22T01:31:48;101211.81;;;20.37;62.01
7524;BME280;3803;51.666;7.630;2023-06-22T01:32:10;101198.56;;;20.33;61.91
7524;BME280;3803;51.666;7.630;2023-06-22T01:32:33;101218.84;;;20.43;61.71
7524;BME280;3803;51.666;7.630;2023-06-22T01:32:58;101206.53;;;20.34;62.04
7524;BME280;3803;51.666;7.630;2023-06-22T01:33:20;101207.41;;;20.35;61.84
7524;BME280;3803;51.666;7.630;2023-06-22T01:33:43;101203.88;;;20.33;61.82
7524;BME280;3803;51.666;7.630;2023-06-22T01:34:06;101203.88;;;20.33;61.80
7524;BME280;3803;51.666;7.630;2023-06-22T01:34:30;101223.28;;;20.41;62.00
7524;BME280;3803;51.666;7.630;2023-06-22T01:34:52;101202.13;;;20.32;61.94
7524;BME280;3803;51.666;7.630;2023-06-22T01:35:13;101219.75;;;20.39;62.06
7524;BME280;3803;51.666;7.630;2023-06-22T01:35:35;101204.75;;;20.35;62.04
7524;BME280;3803;51.666;7.630;2023-06-22T01:35:56;101215.34;;;20.39;62.33
7524;BME280;3803;51.666;7.630;2023-06-22T01:36:18;101209.16;;;20.37;62.03
7524;BME280;3803;51.666;7.630;2023-06-22T01:36:40;101209.13;;;20.39;62.08
7524;BME280;3803;51.666;7.630;2023-06-22T01:37:02;101203.88;;;20.33;61.93
7524;BME280;3803;51.666;7.630;2023-06-22T01:37:24;101207.38;;;20.36;62.00
7524;BME280;3803;51.666;7.630;2023-06-22T01:37:45;101202.13;;;20.32;61.95
7524;BME280;3803;51.666;7.630;2023-06-22T01:38:08;101206.50;;;20.39;61.99
7524;BME280;3803;51.666;7.630;2023-06-22T01:38:30;101186.22;;;20.32;61.95
7524;BME280;3803;51.666;7.630;2023-06-22T01:38:52;101206.53;;;20.37;61.92
7524;BME280;3803;51.666;7.630;2023-06-22T01:39:13;101197.72;;;20.32;62.12
7524;BME280;3803;51.666;7.630;2023-06-22T01:39:35;101203.88;;;20.36;62.06
7524;BME280;3803;51.666;7.630;2023-06-22T01:39:56;101200.31;;;20.38;61.96
7524;BME280;3803;51.666;7.630;2023-06-22T01:40:19;101209.13;;;20.42;61.93
7524;BME280;3803;51.666;7.630;2023-06-22T01:40:40;101210.03;;;20.41;61.88
7524;BME280;3803;51.666;7.630;2023-06-22T01:41:02;101205.63;;;20.38;61.88
7524;BME280;3803;51.666;7.630;2023-06-22T01:41:26;101199.47;;;20.33;62.13
7524;BME280;3803;51.666;7.630;2023-06-22T01:41:47;101210.03;;;20.36;62.33
7524;BME280;3803;51.666;7.630;2023-06-22T01:42:10;101192.41;;;20.31;62.16
7524;BME280;3803;51.666;7.630;2023-06-22T01:42:31;101201.22;;;20.34;62.08
7524;BME280;3803;51.666;7.630;2023-06-22T01:42:53;101194.16;;;20.33;62.08
7524;BME280;3803;51.666;7.630;2023-06-22T01:43:14;101193.31;;;20.30;62.02
7524;BME280;3803;51.666;7.630;2023-06-22T01:43:36;101204.72;;;20.36;62.15
7524;BME280;3803;51.666;7.630;2023-06-22T01:43:57;101209.13;;;20.39;62.08
7524;BME280;3803;51.666;7.630;2023-06-22T01:44:19;101200.34;;;20.34;62.18
7524;BME280;3803;51.666;7.630;2023-06-22T01:44:42;101195.91;;;20.34;61.91
7524;BME280;3803;51.666;7.630;2023-06-22T01:45:05;101194.16;;;20.32;62.15
7524;BME280;3803;51.666;7.630;2023-06-22T01:45:27;101205.63;;;20.38;62.36
7524;BME280;3803;51.666;7.630;2023-06-22T01:45:49;101191.50;;;20.32;62.23
7524;BME280;3803;51.666;7.630;2023-06-22T01:46:11;101205.63;;;20.35;62.05
7524;BME280;3803;51.666;7.630;2023-06-22T01:46:36;101197.72;;;20.31;62.34
7524;BME280;3803;51.666;7.630;2023-06-22T01:46:56;101203.88;;;20.37;62.16
7524;BME280;3803;51.666;7.630;2023-06-22T01:47:18;101201.22;;;20.33;62.30
7524;BME280;3803;51.666;7.630;2023-06-22T01:47:40;101196.81;;;20.32;62.20
7524;BME280;3803;51.666;7.630;2023-06-22T01:48:01;101195.94;;;20.30;62.32
7524;BME280;3803;51.666;7.630;2023-06-22T01:48:23;101201.22;;;20.34;62.40
7524;BME280;3803;51.666;7.630;2023-06-22T01:48:44;101203.00;;;20.34;62.34
7524;BME280;3803;51.666;7.630;2023-06-22T01:49:06;101207.41;;;20.35;62.49
7524;BME280;3803;51.666;7.630;2023-06-22T01:49:27;101201.22;;;20.36;62.55
7524;BME280;3803;51.666;7.630;2023-06-22T01:49:48;101193.31;;;20.30;62.40
7524;BME280;3803;51.666;7.630;2023-06-22T01:50:11;101191.53;;;20.28;62.29
7524;BME280;3803;51.666;7.630;2023-06-22T01:50:32;101196.81;;;20.32;62.31
7524;BME280;3803;51.666;7.630;2023-06-22T01:50:53;101203.00;;;20.34;62.35
7524;BME280;3803;51.666;7.630;2023-06-22T01:51:14;101195.91;;;20.33;62.48
7524;BME280;3803;51.666;7.630;2023-06-22T01:51:41;101195.91;;;20.33;62.51
7524;BME280;3803;51.666;7.630;2023-06-22T01:52:02;101193.31;;;20.30;62.37
7524;BME280;3803;51.666;7.630;2023-06-22T01:52:23;101194.16;;;20.32;62.43
7524;BME280;3803;51.666;7.630;2023-06-22T01:52:44;101202.09;;;20.38;62.59
7524;BME280;3803;51.666;7.630;2023-06-22T01:53:05;101192.41;;;20.34;62.74
7524;BME280;3803;51.666;7.630;2023-06-22T01:53:27;101195.94;;;20.30;62.51
7524;BME280;3803;51.666;7.630;2023-06-22T01:53:48;101191.53;;;20.28;62.33
7524;BME280;3803;51.666;7.630;2023-06-22T01:54:09;101188.91;;;20.28;62.30
7524;BME280;3803;51.666;7.630;2023-06-22T01:54:30;101184.50;;;20.27;62.38
7524;BME280;3803;51.666;7.630;2023-06-22T01:54:50;101182.72;;;20.26;62.37
7524;BME280;3803;51.666;7.630;2023-06-22T01:55:12;101200.34;;;20.32;62.12
7524;BME280;3803;51.666;7.630;2023-06-22T01:55:34;101196.84;;;20.30;62.52
7524;BME280;3803;51.666;7.630;2023-06-22T01:55:56;101200.34;;;20.34;62.46
7524;BME280;3803;51.666;7.630;2023-06-22T01:56:17;101187.13;;;20.29;62.43
7524;BME280;3803;51.666;7.630;2023-06-22T01:56:39;101202.13;;;20.33;62.50
7524;BME280;3803;51.666;7.630;2023-06-22T01:57:00;101190.69;;;20.26;62.45
7524;BME280;3803;51.666;7.630;2023-06-22T01:57:22;101189.78;;;20.27;62.50
7524;BME280;3803;51.666;7.630;2023-06-22T01:57:43;101194.22;;;20.25;62.49
7524;BME280;3803;51.666;7.630;2023-06-22T01:58:03;101193.31;;;20.30;62.67
7524;BME280;3803;51.666;7.630;2023-06-22T01:58:26;101197.75;;;20.27;62.64
7524;BME280;3803;51.666;7.630;2023-06-22T01:59:38;101196.84;;;20.30;62.64
7524;BME280;3803;51.666;7.630;2023-06-22T02:00:07;101181.88;;;20.21;62.71
7524;BME280;3803;51.666;7.630;2023-06-22T02:00:37;101209.19;;;20.30;62.69
7524;BME280;3803;51.666;7.630;2023-06-22T02:01:09;101207.41;;;20.32;62.68
7524;BME280;3803;51.666;7.630;2023-06-22T02:01:41;101189.81;;;20.21;62.65
7524;BME280;3803;51.666;7.630;2023-06-22T02:02:09;101201.28;;;20.23;62.81
7524;BME280;3803;51.666;7.630;2023-06-22T02:02:54;101209.19;;;20.30;62.75
7524;BME280;3803;51.666;7.630;2023-06-22T02:03:19;101202.19;;;20.25;62.84
7524;BME280;3803;51.666;7.630;2023-06-22T02:03:46;101189.81;;;20.21;62.84
7524;BME280;3803;51.666;7.630;2023-06-22T02:04:13;101191.59;;;20.19;62.88
7524;BME280;3803;51.666;7.630;2023-06-22T02:04:56;101211.84;;;20.30;63.04
7524;BME280;3803;51.666;7.630;2023-06-22T02:05:19;101202.19;;;20.24;62.69
7524;BME280;3803;51.666;7.630;2023-06-22T02:05:49;101203.06;;;20.23;62.73
7524;BME280;3803;51.666;7.630;2023-06-22T02:06:31;101209.22;;;20.23;62.92
7524;BME280;3803;51.666;7.630;2023-06-22T02:06:58;101204.84;;;20.19;62.96
7524;BME280;3803;51.666;7.630;2023-06-22T02:07:23;101211.88;;;20.26;62.84
7524;BME280;3803;51.666;7.630;2023-06-22T02:07:52;101202.19;;;20.25;62.92
7524;BME280;3803;51.666;7.630;2023-06-22T02:08:23;101216.25;;;20.31;62.99
7524;BME280;3803;51.666;7.630;2023-06-22T02:08:50;101202.16;;;20.22;63.09
7524;BME280;3803;51.666;7.630;2023-06-22T02:09:16;101212.75;;;20.28;62.88
7524;BME280;3803;51.666;7.630;2023-06-22T02:09:39;101197.78;;;20.18;63.04
7524;BME280;3803;51.666;7.630;2023-06-22T02:10:03;101206.59;;;20.25;63.11
7524;BME280;3803;51.666;7.630;2023-06-22T02:10:26;101196.91;;;20.16;63.01
7524;BME280;3803;51.666;7.630;2023-06-22T02:10:49;101215.41;;;20.22;63.25
7524;BME280;3803;51.666;7.630;2023-06-22T02:11:13;101196.94;;;20.13;63.13